createdAt,value
2023-12-01T00:01:42.485Z,0
2023-12-01T00:06:02.477Z,0
2023-12-01T00:11:02.795Z,0
2023-12-01T00:16:02.969Z,0.02
2023-12-01T00:21:02.861Z,0.01
2023-12-01T00:26:02.940Z,0.02
2023-12-01T00:31:00.281Z,0
2023-12-01T00:35:59.839Z,0.03
2023-12-01T00:40:59.739Z,0.02
2023-12-01T00:45:59.813Z,0.03
2023-12-01T00:50:59.642Z,0.02
2023-12-01T00:55:59.641Z,0.01
2023-12-01T01:00:22.315Z,0
2023-12-01T01:05:22.653Z,0.02
2023-12-01T01:10:23.332Z,0
2023-12-01T01:15:19.387Z,0.02
2023-12-01T01:20:19.011Z,0
2023-12-01T01:25:18.895Z,0.03
2023-12-01T01:30:19.241Z,0
2023-12-01T01:35:23.478Z,0
2023-12-01T01:40:20.226Z,0.03
2023-12-01T01:45:19.747Z,0.02
2023-12-01T01:50:21.027Z,0.03
2023-12-01T01:55:17.471Z,0
2023-12-01T02:00:18.720Z,0.03
2023-12-01T02:05:18.786Z,0.03
2023-12-01T02:10:19.568Z,0
2023-12-01T02:15:19.688Z,0.02
2023-12-01T02:22:30.070Z,0
2023-12-01T02:25:21.288Z,0
2023-12-01T02:30:22.107Z,0
2023-12-01T02:35:18.089Z,0
2023-12-01T02:40:18.384Z,0
2023-12-01T02:45:18.126Z,0
2023-12-01T02:50:18.700Z,0.02
2023-12-01T02:55:18.907Z,0.02
2023-12-01T02:59:48.514Z,0.02
2023-12-01T03:04:48.331Z,0.02
2023-12-01T03:09:47.958Z,0.02
2023-12-01T03:15:03.839Z,0.03
2023-12-01T03:19:47.891Z,0.02
2023-12-01T03:24:47.875Z,0.03
2023-12-01T03:29:47.727Z,0.02
2023-12-01T03:34:48.021Z,0.02
2023-12-01T03:39:44.986Z,0
2023-12-01T03:44:44.535Z,0.03
2023-12-01T03:49:44.633Z,0.02
2023-12-01T03:54:44.476Z,0.02
2023-12-01T03:59:44.046Z,0.02
2023-12-01T04:04:45.103Z,0.01
2023-12-01T04:09:44.405Z,0
2023-12-01T04:14:49.434Z,0.01
2023-12-01T04:19:47.639Z,0
2023-12-01T04:24:41.567Z,0.03
2023-12-01T04:29:41.232Z,0
2023-12-01T04:34:41.209Z,0
2023-12-01T04:39:41.274Z,0
2023-12-01T04:44:41.025Z,0.03
2023-12-01T04:49:41.371Z,0
2023-12-01T04:54:41.422Z,0
2023-12-01T04:59:42.421Z,0
2023-12-01T05:01:45.216Z,0
2023-12-01T05:06:03.919Z,0.03
2023-12-01T05:11:03.802Z,0.02
2023-12-01T05:16:04.013Z,0.03
2023-12-01T05:21:03.898Z,0.03
2023-12-01T05:26:05.037Z,0.03
2023-12-01T05:31:03.612Z,0
2023-12-01T05:36:03.527Z,0
2023-12-01T05:41:02.297Z,0
2023-12-01T05:46:02.466Z,0.01
2023-12-01T05:51:02.187Z,0
2023-12-01T05:56:05.832Z,0
2023-12-01T06:00:23.953Z,0.03
2023-12-01T06:10:24.492Z,0
2023-12-01T06:15:23.974Z,0.03
2023-12-01T06:20:24.123Z,0.03
2023-12-01T06:25:22.520Z,0.01
2023-12-01T06:30:20.954Z,0.02
2023-12-01T06:35:21.202Z,0
2023-12-01T06:40:20.822Z,0.02
2023-12-01T06:45:20.526Z,0.01
2023-12-01T06:50:20.982Z,0.03
2023-12-01T06:55:20.738Z,0
2023-12-01T07:00:19.536Z,0.01
2023-12-01T07:05:15.807Z,0.06
2023-12-01T07:10:16.241Z,0.06
2023-12-01T07:15:16.378Z,0.09
2023-12-01T07:20:17.065Z,0.18
2023-12-01T07:25:17.339Z,0.16
2023-12-01T07:30:17.079Z,0.23
2023-12-01T07:35:15.421Z,0.16
2023-12-01T07:40:15.660Z,0.25
2023-12-01T07:45:16.396Z,0.27
2023-12-01T07:50:17.167Z,0.43
2023-12-01T07:55:17.325Z,0.48
2023-12-01T07:59:48.438Z,0.54
2023-12-01T08:01:55.192Z,0.67
2023-12-01T08:06:21.780Z,0.91
2023-12-01T08:11:22.744Z,0.84
2023-12-01T08:16:22.128Z,0.98
2023-12-01T08:21:22.036Z,1.01
2023-12-01T08:26:22.813Z,1.06
2023-12-01T08:31:35.505Z,1.4
2023-12-01T08:36:19.812Z,1.29
2023-12-01T08:41:29.452Z,1.58
2023-12-01T08:46:20.609Z,1.86
2023-12-01T08:51:25.646Z,1.81
2023-12-01T08:56:21.565Z,2.45
2023-12-01T09:00:46.112Z,2.27
2023-12-01T09:05:45.997Z,2.16
2023-12-01T09:10:42.132Z,1.67
2023-12-01T09:15:41.918Z,2.17
2023-12-01T09:20:41.789Z,2
2023-12-01T09:25:42.491Z,2.03
2023-12-01T09:30:42.048Z,2.79
2023-12-01T09:36:11.783Z,2.69
2023-12-01T09:40:44.424Z,2.96
2023-12-01T09:45:43.798Z,2.73
2023-12-01T09:50:40.949Z,2.61
2023-12-01T09:55:54.964Z,3.18
2023-12-01T10:00:20.655Z,3.08
2023-12-01T10:05:22.281Z,2.88
2023-12-01T10:10:21.244Z,3.23
2023-12-01T10:15:21.577Z,3.62
2023-12-01T10:20:22.856Z,2.72
2023-12-01T10:25:18.716Z,2.37
2023-12-01T10:30:20.367Z,2.7
2023-12-01T10:35:19.378Z,3.07
2023-12-01T10:40:20.309Z,2.34
2023-12-01T10:45:20.695Z,2.55
2023-12-01T10:50:20.531Z,2.45
2023-12-01T10:55:19.133Z,1.55
2023-12-01T10:59:50.513Z,1.82
2023-12-01T11:04:50.722Z,1.69
2023-12-01T11:09:50.557Z,2.08
2023-12-01T11:14:50.579Z,3.15
2023-12-01T11:19:51.220Z,2.71
2023-12-01T11:24:50.770Z,3.06
2023-12-01T11:29:50.856Z,2.55
2023-12-01T11:34:50.023Z,2.2
2023-12-01T11:39:47.971Z,2.48
2023-12-01T11:44:47.706Z,2.04
2023-12-01T11:49:48.841Z,1.98
2023-12-01T11:54:47.464Z,2.12
2023-12-01T11:59:47.734Z,1.4
2023-12-01T12:04:49.200Z,1.73
2023-12-01T12:09:47.917Z,1.55
2023-12-01T12:14:49.424Z,1.74
2023-12-01T12:19:48.281Z,1.56
2023-12-01T12:24:46.349Z,1.17
2023-12-01T12:29:45.584Z,1.46
2023-12-01T12:34:48.003Z,1.5
2023-12-01T12:39:45.717Z,1.05
2023-12-01T12:44:45.862Z,1.31
2023-12-01T12:49:45.099Z,1.23
2023-12-01T12:54:44.975Z,1.01
2023-12-01T12:59:42.713Z,1.1
2023-12-01T13:01:44.837Z,1.32
2023-12-01T13:06:04.732Z,0.92
2023-12-01T13:11:05.046Z,0.94
2023-12-01T13:16:05.067Z,0.76
2023-12-01T13:21:05.089Z,0.66
2023-12-01T13:26:05.127Z,0.48
2023-12-01T13:31:04.550Z,0.53
2023-12-01T13:36:03.086Z,0.51
2023-12-01T13:41:02.564Z,0.48
2023-12-01T13:46:04.026Z,0.38
2023-12-01T13:51:02.554Z,0.56
2023-12-01T13:56:12.860Z,0.61
2023-12-01T14:00:24.371Z,0.76
2023-12-01T14:05:24.806Z,0.44
2023-12-01T14:10:24.201Z,0.69
2023-12-01T14:15:24.464Z,0.48
2023-12-01T14:20:21.582Z,0.33
2023-12-01T14:25:21.080Z,0.48
2023-12-01T14:30:20.868Z,0.75
2023-12-01T14:35:22.662Z,0.4
2023-12-01T14:40:22.717Z,0.48
2023-12-01T14:45:21.896Z,0.41
2023-12-01T14:50:22.156Z,0.25
2023-12-01T14:55:21.558Z,0.13
2023-12-01T15:00:17.534Z,0.28
2023-12-01T15:05:18.048Z,0.33
2023-12-01T15:10:18.080Z,0.25
2023-12-01T15:15:18.514Z,0.18
2023-12-01T15:20:19.724Z,0.23
2023-12-01T15:25:22.281Z,0.14
2023-12-01T15:30:20.257Z,0.09
2023-12-01T15:35:17.472Z,0.07
2023-12-01T15:40:17.562Z,0.02
2023-12-01T15:45:17.507Z,0.01
2023-12-01T15:50:17.427Z,0.01
2023-12-01T15:55:17.780Z,0.03
2023-12-01T15:59:51.034Z,0.03
2023-12-01T16:04:50.039Z,0.03
2023-12-01T16:09:49.132Z,0.01
2023-12-01T16:14:48.871Z,0.03
2023-12-01T16:19:49.595Z,0
2023-12-01T16:24:58.464Z,0
2023-12-01T16:29:49.437Z,0
2023-12-01T16:34:49.135Z,0.03
2023-12-01T16:39:49.336Z,0.03
2023-12-01T16:44:47.564Z,0.03
2023-12-01T16:49:47.589Z,0.02
2023-12-01T16:54:46.815Z,0.03
2023-12-01T16:59:46.811Z,0.03
2023-12-01T17:04:47.008Z,0
2023-12-01T17:09:46.577Z,0.01
2023-12-01T17:14:56.917Z,0
2023-12-01T17:19:46.550Z,0
2023-12-01T17:24:46.655Z,0
2023-12-01T17:30:03.020Z,0.02
2023-12-01T17:34:43.657Z,0.02
2023-12-01T17:39:43.365Z,0
2023-12-01T17:44:43.566Z,0.02
2023-12-01T17:49:43.432Z,0
2023-12-01T17:54:43.982Z,0.03
2023-12-01T17:59:43.660Z,0.01
2023-12-01T18:01:45.719Z,0.02
2023-12-01T18:06:05.388Z,0
2023-12-01T18:11:04.845Z,0.03
2023-12-01T18:16:05.091Z,0.03
2023-12-01T18:21:05.527Z,0
2023-12-01T18:26:04.916Z,0.03
2023-12-01T18:31:05.280Z,0.03
2023-12-01T18:36:04.668Z,0
2023-12-01T18:41:04.786Z,0
2023-12-01T18:46:03.541Z,0
2023-12-01T18:51:04.427Z,0
2023-12-01T18:56:02.098Z,0
2023-12-01T19:00:23.627Z,0.02
2023-12-01T19:05:23.706Z,0
2023-12-01T19:10:23.225Z,0
2023-12-01T19:15:23.608Z,0.01
2023-12-01T19:20:23.800Z,0
2023-12-01T19:25:23.573Z,0
2023-12-01T19:30:22.634Z,0.03
2023-12-01T19:35:20.636Z,0.02
2023-12-01T19:40:20.588Z,0.02
2023-12-01T19:45:20.041Z,0.02
2023-12-01T19:50:20.250Z,0.03
2023-12-01T19:55:22.445Z,0
2023-12-01T20:00:18.078Z,0.03
2023-12-01T20:05:18.726Z,0.03
2023-12-01T20:10:16.069Z,0.02
2023-12-01T20:15:04.975Z,0.03
2023-12-01T20:20:05.508Z,0
2023-12-01T20:25:04.871Z,0.03
2023-12-01T20:30:04.969Z,0.03
2023-12-01T20:35:05.784Z,0
2023-12-01T20:40:08.297Z,0.02
2023-12-01T20:45:07.025Z,0
2023-12-01T20:50:02.965Z,0.02
2023-12-01T20:55:02.293Z,0
2023-12-01T20:59:45.008Z,0.02
2023-12-01T21:04:45.302Z,0
2023-12-01T21:09:47.692Z,0
2023-12-01T21:14:45.936Z,0.03
2023-12-01T21:19:46.413Z,0.02
2023-12-01T21:24:46.940Z,0.03
2023-12-01T21:29:42.983Z,0
2023-12-01T21:34:42.996Z,0.02
2023-12-01T21:39:42.652Z,0.01
2023-12-01T21:44:43.428Z,0.03
2023-12-01T21:49:43.470Z,0.03
2023-12-01T21:54:43.024Z,0.03
2023-12-01T21:59:42.583Z,0
2023-12-01T22:04:42.552Z,0
2023-12-01T22:09:41.058Z,0.03
2023-12-01T22:14:40.172Z,0
2023-12-01T22:19:40.519Z,0.03
2023-12-01T22:24:40.109Z,0.02
2023-12-01T22:29:39.565Z,0.01
2023-12-01T22:34:39.599Z,0
2023-12-01T22:39:39.619Z,0
2023-12-01T22:44:39.404Z,0
2023-12-01T22:49:38.295Z,0.02
2023-12-01T22:54:36.963Z,0.03
2023-12-01T22:59:36.970Z,0.02
2023-12-01T23:01:39.125Z,0
2023-12-01T23:05:59.466Z,0.02
2023-12-01T23:10:58.631Z,0.01
2023-12-01T23:16:01.279Z,0.03
2023-12-01T23:20:59.551Z,0.02
2023-12-01T23:25:58.823Z,0.01
2023-12-01T23:30:56.486Z,0
2023-12-01T23:36:00.660Z,0.03
2023-12-01T23:40:55.635Z,0.02
2023-12-01T23:45:56.214Z,0.03
2023-12-01T23:50:55.763Z,0.02
2023-12-01T23:55:56.053Z,0.03
